createdAt,value
2023-10-05T01:21:58.747Z,92.33
2023-10-05T01:37:00.692Z,44.20
2023-10-05T01:52:02.613Z,42.53
2023-10-05T02:07:04.780Z,38.60
2023-10-05T02:22:13.234Z,39.40
2023-10-05T02:37:21.041Z,36.10
2023-10-05T02:52:23.349Z,40.87
2023-10-05T03:07:27.172Z,36.07
2023-10-05T03:22:29.431Z,39.30
2023-10-05T03:37:33.327Z,39.83
2023-10-05T03:52:35.719Z,34.40
2023-10-05T04:07:37.877Z,38.73
2023-10-05T04:22:39.786Z,39.20
2023-10-05T04:37:41.586Z,34.67
2023-10-05T04:52:46.634Z,31.97
2023-10-05T05:07:50.109Z,32.97
2023-10-05T05:22:51.786Z,30.70
2023-10-05T05:37:57.453Z,33.17
2023-10-05T05:52:59.862Z,32.20
2023-10-05T06:08:02.810Z,34.17
2023-10-05T06:23:04.704Z,36.57
2023-10-05T06:38:06.365Z,41.50
2023-10-05T06:53:12.419Z,38.40
2023-10-05T07:08:15.516Z,40.07
2023-10-05T07:38:19.006Z,46.17
2023-10-05T07:53:21.040Z,44.83
2023-10-05T08:08:25.184Z,46.40
2023-10-05T08:23:27.040Z,53.10
2023-10-05T08:38:28.748Z,40.33
2023-10-05T08:53:30.467Z,49.37
2023-10-05T09:08:42.622Z,53.93
2023-10-05T09:23:45.512Z,55.30
2023-10-05T09:38:48.160Z,54.13
2023-10-05T09:53:53.891Z,49.70
2023-10-05T10:09:11.040Z,60.33
2023-10-05T10:24:19.301Z,57.53
2023-10-05T10:54:28.381Z,60.37
2023-10-05T11:09:39.082Z,61.80
2023-10-05T11:25:16.005Z,63.17
2023-10-05T11:40:25.073Z,63.13
2023-10-05T11:55:27.532Z,61.57
2023-10-05T12:10:29.314Z,68.27
2023-10-05T12:25:31.030Z,66.07
2023-10-05T12:40:35.885Z,70.30
2023-10-05T12:55:39.139Z,64.73
2023-10-05T13:10:42.062Z,65.57
2023-10-05T13:25:45.168Z,59.97
2023-10-05T13:41:03.003Z,70.23
2023-10-05T13:56:06.381Z,60.27
2023-10-05T14:11:11.042Z,67.60
2023-10-05T14:26:12.795Z,63.33
2023-10-05T14:41:15.386Z,66.17
2023-10-05T14:56:17.685Z,65.27
2023-10-05T15:11:19.545Z,63.50
2023-10-05T15:41:23.658Z,57.67
2023-10-05T15:56:28.353Z,57.33
2023-10-05T16:11:30.088Z,57.00
2023-10-05T16:26:31.759Z,55.00
2023-10-05T16:41:33.512Z,54.03
2023-10-05T16:56:48.065Z,55.17
2023-10-05T17:11:56.072Z,53.80
2023-10-05T17:26:57.775Z,48.83
2023-10-05T17:41:59.686Z,45.97
2023-10-05T17:57:02.342Z,46.83
2023-10-05T18:12:09.014Z,43.20
2023-10-05T18:27:12.339Z,49.27
2023-10-05T18:42:15.758Z,43.00
2023-10-05T18:57:18.162Z,41.87
2023-10-05T19:12:20.267Z,43.63
2023-10-05T19:27:22.224Z,43.70
2023-10-05T19:42:24.064Z,41.37
2023-10-05T19:57:26.129Z,41.53
2023-10-05T20:12:27.934Z,42.10
2023-10-05T20:27:29.689Z,32.97
2023-10-05T20:42:32.216Z,38.70
2023-10-05T20:57:33.989Z,37.97
2023-10-05T21:12:36.330Z,38.90
2023-10-05T21:27:38.356Z,37.33
2023-10-05T21:42:40.024Z,40.80
2023-10-05T21:57:41.788Z,46.30
2023-10-05T22:12:43.438Z,44.23
2023-10-05T22:27:45.137Z,38.80
2023-10-05T22:42:47.037Z,40.87
2023-10-05T22:57:48.779Z,37.97
2023-10-05T23:12:50.478Z,35.43
2023-10-05T23:27:53.316Z,37.63
2023-10-05T23:42:55.630Z,40.47
2023-10-05T23:57:57.351Z,36.37
